sensor_id;sensor_type;location;lat;lon;timestamp;P1;durP1;ratioP1;P2;durP2;ratioP2
70138;SDS011;57507;43.056;0.150;2023-05-16T00:01:17;1.45;;;0.70;;
70138;SDS011;57507;43.056;0.150;2023-05-16T00:03:44;1.40;;;0.80;;
70138;SDS011;57507;43.056;0.150;2023-05-16T00:06:11;1.35;;;0.60;;
70138;SDS011;57507;43.056;0.150;2023-05-16T00:08:37;3.45;;;1.27;;
70138;SDS011;57507;43.056;0.150;2023-05-16T00:11:04;1.05;;;0.80;;
70138;SDS011;57507;43.056;0.150;2023-05-16T00:13:33;1.55;;;0.70;;
70138;SDS011;57507;43.056;0.150;2023-05-16T00:15:59;1.30;;;0.82;;
70138;SDS011;57507;43.056;0.150;2023-05-16T00:18:26;0.75;;;0.70;;
70138;SDS011;57507;43.056;0.150;2023-05-16T00:21:04;1.33;;;0.68;;
70138;SDS011;57507;43.056;0.150;2023-05-16T00:23:31;1.58;;;1.00;;
70138;SDS011;57507;43.056;0.150;2023-05-16T00:25:58;1.23;;;0.65;;
70138;SDS011;57507;43.056;0.150;2023-05-16T00:28:24;1.50;;;0.40;;
70138;SDS011;57507;43.056;0.150;2023-05-16T00:30:51;0.80;;;0.60;;
70138;SDS011;57507;43.056;0.150;2023-05-16T00:33:17;0.98;;;0.68;;
70138;SDS011;57507;43.056;0.150;2023-05-16T00:35:44;1.20;;;0.70;;
70138;SDS011;57507;43.056;0.150;2023-05-16T00:38:10;0.82;;;0.40;;
70138;SDS011;57507;43.056;0.150;2023-05-16T00:40:36;1.20;;;0.70;;
70138;SDS011;57507;43.056;0.150;2023-05-16T00:43:02;1.45;;;0.50;;
70138;SDS011;57507;43.056;0.150;2023-05-16T00:45:28;0.68;;;0.60;;
70138;SDS011;57507;43.056;0.150;2023-05-16T00:47:54;0.60;;;0.50;;
70138;SDS011;57507;43.056;0.150;2023-05-16T00:50:20;1.20;;;0.77;;
70138;SDS011;57507;43.056;0.150;2023-05-16T00:52:47;2.08;;;0.90;;
70138;SDS011;57507;43.056;0.150;2023-05-16T00:55:13;1.90;;;0.95;;
70138;SDS011;57507;43.056;0.150;2023-05-16T00:57:39;1.10;;;0.75;;
70138;SDS011;57507;43.056;0.150;2023-05-16T01:00:05;2.00;;;1.20;;
70138;SDS011;57507;43.056;0.150;2023-05-16T01:02:34;0.70;;;0.60;;
70138;SDS011;57507;43.056;0.150;2023-05-16T01:05:01;1.23;;;0.70;;
70138;SDS011;57507;43.056;0.150;2023-05-16T01:07:29;0.85;;;0.60;;
70138;SDS011;57507;43.056;0.150;2023-05-16T01:09:56;0.43;;;0.43;;
70138;SDS011;57507;43.056;0.150;2023-05-16T01:12:28;1.00;;;0.70;;
70138;SDS011;57507;43.056;0.150;2023-05-16T01:15:01;0.93;;;0.50;;
70138;SDS011;57507;43.056;0.150;2023-05-16T01:17:37;1.77;;;0.70;;
70138;SDS011;57507;43.056;0.150;2023-05-16T01:20:09;0.77;;;0.57;;
70138;SDS011;57507;43.056;0.150;2023-05-16T01:27:57;0.65;;;0.55;;
70138;SDS011;57507;43.056;0.150;2023-05-16T01:30:23;1.00;;;0.80;;
70138;SDS011;57507;43.056;0.150;2023-05-16T01:32:49;0.70;;;0.55;;
70138;SDS011;57507;43.056;0.150;2023-05-16T01:35:16;1.05;;;0.63;;
70138;SDS011;57507;43.056;0.150;2023-05-16T01:37:51;2.70;;;0.70;;
70138;SDS011;57507;43.056;0.150;2023-05-16T01:43:04;1.02;;;0.70;;
70138;SDS011;57507;43.056;0.150;2023-05-16T01:45:33;0.75;;;0.60;;
70138;SDS011;57507;43.056;0.150;2023-05-16T01:48:04;0.80;;;0.50;;
70138;SDS011;57507;43.056;0.150;2023-05-16T01:50:33;0.60;;;0.60;;
70138;SDS011;57507;43.056;0.150;2023-05-16T01:57:57;0.73;;;0.50;;
70138;SDS011;57507;43.056;0.150;2023-05-16T02:00:24;0.85;;;0.40;;
70138;SDS011;57507;43.056;0.150;2023-05-16T02:02:50;0.98;;;0.40;;
70138;SDS011;57507;43.056;0.150;2023-05-16T02:05:16;1.50;;;0.65;;
70138;SDS011;57507;43.056;0.150;2023-05-16T02:07:42;0.77;;;0.70;;
70138;SDS011;57507;43.056;0.150;2023-05-16T02:10:08;1.23;;;0.68;;
70138;SDS011;57507;43.056;0.150;2023-05-16T02:12:36;0.65;;;0.50;;
70138;SDS011;57507;43.056;0.150;2023-05-16T02:15:02;2.40;;;0.65;;
70138;SDS011;57507;43.056;0.150;2023-05-16T02:17:28;0.73;;;0.50;;
70138;SDS011;57507;43.056;0.150;2023-05-16T02:19:55;1.13;;;0.60;;
70138;SDS011;57507;43.056;0.150;2023-05-16T02:22:21;0.63;;;0.45;;
70138;SDS011;57507;43.056;0.150;2023-05-16T02:24:47;2.00;;;0.60;;
70138;SDS011;57507;43.056;0.150;2023-05-16T02:27:13;1.58;;;0.60;;
70138;SDS011;57507;43.056;0.150;2023-05-16T02:29:40;3.85;;;0.50;;
70138;SDS011;57507;43.056;0.150;2023-05-16T02:32:06;1.13;;;0.70;;
70138;SDS011;57507;43.056;0.150;2023-05-16T02:34:32;0.60;;;0.52;;
70138;SDS011;57507;43.056;0.150;2023-05-16T02:36:58;0.60;;;0.57;;
70138;SDS011;57507;43.056;0.150;2023-05-16T02:39:27;1.02;;;0.70;;
70138;SDS011;57507;43.056;0.150;2023-05-16T02:41:54;1.05;;;0.60;;
70138;SDS011;57507;43.056;0.150;2023-05-16T02:44:20;2.63;;;0.80;;
70138;SDS011;57507;43.056;0.150;2023-05-16T02:46:46;0.98;;;0.80;;
70138;SDS011;57507;43.056;0.150;2023-05-16T02:49:12;0.82;;;0.60;;
70138;SDS011;57507;43.056;0.150;2023-05-16T02:51:38;2.03;;;0.73;;
70138;SDS011;57507;43.056;0.150;2023-05-16T02:54:04;0.80;;;0.60;;
70138;SDS011;57507;43.056;0.150;2023-05-16T02:56:33;1.52;;;0.63;;
70138;SDS011;57507;43.056;0.150;2023-05-16T02:59:01;1.30;;;0.68;;
70138;SDS011;57507;43.056;0.150;2023-05-16T03:01:28;1.70;;;0.80;;
70138;SDS011;57507;43.056;0.150;2023-05-16T03:03:54;1.50;;;0.77;;
70138;SDS011;57507;43.056;0.150;2023-05-16T03:06:20;0.90;;;0.80;;
70138;SDS011;57507;43.056;0.150;2023-05-16T03:08:48;1.52;;;0.80;;
70138;SDS011;57507;43.056;0.150;2023-05-16T03:11:15;1.27;;;0.70;;
70138;SDS011;57507;43.056;0.150;2023-05-16T03:13:43;2.13;;;0.90;;
70138;SDS011;57507;43.056;0.150;2023-05-16T03:16:09;1.40;;;0.60;;
70138;SDS011;57507;43.056;0.150;2023-05-16T03:18:36;0.80;;;0.50;;
70138;SDS011;57507;43.056;0.150;2023-05-16T03:21:02;1.02;;;0.50;;
70138;SDS011;57507;43.056;0.150;2023-05-16T03:23:28;0.43;;;0.40;;
70138;SDS011;57507;43.056;0.150;2023-05-16T03:25:54;0.90;;;0.52;;
70138;SDS011;57507;43.056;0.150;2023-05-16T03:28:21;1.25;;;0.70;;
70138;SDS011;57507;43.056;0.150;2023-05-16T03:30:47;0.50;;;0.50;;
70138;SDS011;57507;43.056;0.150;2023-05-16T03:33:15;0.50;;;0.40;;
70138;SDS011;57507;43.056;0.150;2023-05-16T03:35:41;0.38;;;0.30;;
70138;SDS011;57507;43.056;0.150;2023-05-16T03:38:08;0.52;;;0.40;;
70138;SDS011;57507;43.056;0.150;2023-05-16T03:40:34;0.68;;;0.50;;
70138;SDS011;57507;43.056;0.150;2023-05-16T03:43:00;1.33;;;0.57;;
70138;SDS011;57507;43.056;0.150;2023-05-16T03:45:28;0.50;;;0.50;;
70138;SDS011;57507;43.056;0.150;2023-05-16T03:47:56;0.80;;;0.50;;
70138;SDS011;57507;43.056;0.150;2023-05-16T03:50:24;0.68;;;0.68;;
70138;SDS011;57507;43.056;0.150;2023-05-16T03:52:50;0.82;;;0.50;;
70138;SDS011;57507;43.056;0.150;2023-05-16T03:55:18;0.55;;;0.43;;
70138;SDS011;57507;43.056;0.150;2023-05-16T03:57:47;0.50;;;0.50;;
70138;SDS011;57507;43.056;0.150;2023-05-16T04:00:15;2.05;;;0.52;;
70138;SDS011;57507;43.056;0.150;2023-05-16T04:02:42;0.85;;;0.57;;
70138;SDS011;57507;43.056;0.150;2023-05-16T04:05:09;0.82;;;0.60;;
70138;SDS011;57507;43.056;0.150;2023-05-16T04:10:28;1.92;;;0.60;;
70138;SDS011;57507;43.056;0.150;2023-05-16T04:12:57;1.05;;;0.75;;
70138;SDS011;57507;43.056;0.150;2023-05-16T04:15:23;1.48;;;0.80;;
70138;SDS011;57507;43.056;0.150;2023-05-16T04:17:54;1.65;;;0.52;;
70138;SDS011;57507;43.056;0.150;2023-05-16T04:20:20;0.70;;;0.57;;
70138;SDS011;57507;43.056;0.150;2023-05-16T04:22:49;0.63;;;0.50;;
70138;SDS011;57507;43.056;0.150;2023-05-16T04:25:24;0.80;;;0.45;;
70138;SDS011;57507;43.056;0.150;2023-05-16T04:27:56;0.90;;;0.55;;
70138;SDS011;57507;43.056;0.150;2023-05-16T04:30:43;0.68;;;0.50;;
70138;SDS011;57507;43.056;0.150;2023-05-16T04:33:10;0.85;;;0.65;;
70138;SDS011;57507;43.056;0.150;2023-05-16T04:35:36;1.25;;;0.60;;
70138;SDS011;57507;43.056;0.150;2023-05-16T04:38:03;3.10;;;0.73;;
70138;SDS011;57507;43.056;0.150;2023-05-16T04:40:32;0.95;;;0.47;;
70138;SDS011;57507;43.056;0.150;2023-05-16T04:42:59;0.63;;;0.50;;
70138;SDS011;57507;43.056;0.150;2023-05-16T04:45:25;0.80;;;0.60;;
70138;SDS011;57507;43.056;0.150;2023-05-16T04:47:53;0.65;;;0.40;;
70138;SDS011;57507;43.056;0.150;2023-05-16T04:50:20;0.98;;;0.40;;
70138;SDS011;57507;43.056;0.150;2023-05-16T04:52:46;0.73;;;0.40;;
70138;SDS011;57507;43.056;0.150;2023-05-16T04:55:15;1.48;;;0.40;;
70138;SDS011;57507;43.056;0.150;2023-05-16T04:57:41;1.00;;;0.45;;
70138;SDS011;57507;43.056;0.150;2023-05-16T05:00:08;0.80;;;0.57;;
70138;SDS011;57507;43.056;0.150;2023-05-16T05:02:36;0.35;;;0.30;;
70138;SDS011;57507;43.056;0.150;2023-05-16T05:05:03;0.47;;;0.38;;
70138;SDS011;57507;43.056;0.150;2023-05-16T05:07:29;0.60;;;0.50;;
70138;SDS011;57507;43.056;0.150;2023-05-16T05:09:55;0.40;;;0.40;;
70138;SDS011;57507;43.056;0.150;2023-05-16T05:12:21;0.40;;;0.40;;
70138;SDS011;57507;43.056;0.150;2023-05-16T05:14:47;0.70;;;0.60;;
70138;SDS011;57507;43.056;0.150;2023-05-16T05:17:13;0.88;;;0.60;;
70138;SDS011;57507;43.056;0.150;2023-05-16T05:19:40;1.45;;;0.50;;
70138;SDS011;57507;43.056;0.150;2023-05-16T05:22:06;0.38;;;0.38;;
70138;SDS011;57507;43.056;0.150;2023-05-16T05:24:32;0.93;;;0.50;;
70138;SDS011;57507;43.056;0.150;2023-05-16T05:26:59;0.70;;;0.40;;
70138;SDS011;57507;43.056;0.150;2023-05-16T05:29:25;0.90;;;0.50;;
70138;SDS011;57507;43.056;0.150;2023-05-16T05:31:51;0.65;;;0.60;;
70138;SDS011;57507;43.056;0.150;2023-05-16T05:34:17;0.82;;;0.70;;
70138;SDS011;57507;43.056;0.150;2023-05-16T05:36:43;2.72;;;0.60;;
70138;SDS011;57507;43.056;0.150;2023-05-16T05:39:09;0.93;;;0.80;;
70138;SDS011;57507;43.056;0.150;2023-05-16T05:41:36;0.98;;;0.77;;
70138;SDS011;57507;43.056;0.150;2023-05-16T05:44:02;0.82;;;0.40;;
70138;SDS011;57507;43.056;0.150;2023-05-16T05:46:28;1.67;;;1.00;;
70138;SDS011;57507;43.056;0.150;2023-05-16T05:48:54;1.23;;;1.13;;
70138;SDS011;57507;43.056;0.150;2023-05-16T05:51:20;1.08;;;0.98;;
70138;SDS011;57507;43.056;0.150;2023-05-16T05:53:46;2.72;;;1.10;;
70138;SDS011;57507;43.056;0.150;2023-05-16T05:56:13;0.80;;;0.80;;
70138;SDS011;57507;43.056;0.150;2023-05-16T05:58:39;1.35;;;0.57;;
70138;SDS011;57507;43.056;0.150;2023-05-16T06:01:06;0.68;;;0.57;;
70138;SDS011;57507;43.056;0.150;2023-05-16T06:03:32;2.30;;;1.20;;
70138;SDS011;57507;43.056;0.150;2023-05-16T06:05:58;1.15;;;0.95;;
70138;SDS011;57507;43.056;0.150;2023-05-16T06:08:24;1.40;;;0.60;;
70138;SDS011;57507;43.056;0.150;2023-05-16T06:10:50;1.90;;;0.90;;
70138;SDS011;57507;43.056;0.150;2023-05-16T06:13:18;1.02;;;0.70;;
70138;SDS011;57507;43.056;0.150;2023-05-16T06:15:48;1.02;;;0.90;;
70138;SDS011;57507;43.056;0.150;2023-05-16T06:18:15;1.00;;;0.90;;
70138;SDS011;57507;43.056;0.150;2023-05-16T06:20:41;1.10;;;0.88;;
70138;SDS011;57507;43.056;0.150;2023-05-16T06:23:07;0.88;;;0.70;;
70138;SDS011;57507;43.056;0.150;2023-05-16T06:25:33;1.10;;;0.82;;
70138;SDS011;57507;43.056;0.150;2023-05-16T06:28:00;1.15;;;0.80;;
70138;SDS011;57507;43.056;0.150;2023-05-16T06:30:26;1.40;;;0.60;;
70138;SDS011;57507;43.056;0.150;2023-05-16T06:32:52;0.80;;;0.80;;
70138;SDS011;57507;43.056;0.150;2023-05-16T06:35:18;1.35;;;0.88;;
70138;SDS011;57507;43.056;0.150;2023-05-16T06:37:44;2.33;;;1.10;;
70138;SDS011;57507;43.056;0.150;2023-05-16T06:40:10;1.05;;;0.90;;
70138;SDS011;57507;43.056;0.150;2023-05-16T06:42:37;3.25;;;1.10;;
70138;SDS011;57507;43.056;0.150;2023-05-16T06:45:03;1.08;;;0.90;;
70138;SDS011;57507;43.056;0.150;2023-05-16T06:47:29;1.15;;;0.70;;
70138;SDS011;57507;43.056;0.150;2023-05-16T06:49:55;1.40;;;1.08;;
70138;SDS011;57507;43.056;0.150;2023-05-16T06:52:21;3.38;;;1.17;;
70138;SDS011;57507;43.056;0.150;2023-05-16T06:54:48;1.55;;;1.00;;
70138;SDS011;57507;43.056;0.150;2023-05-16T06:57:16;2.38;;;1.20;;
70138;SDS011;57507;43.056;0.150;2023-05-16T06:59:42;0.95;;;0.75;;
70138;SDS011;57507;43.056;0.150;2023-05-16T07:02:09;1.20;;;1.10;;
70138;SDS011;57507;43.056;0.150;2023-05-16T07:04:35;2.53;;;0.75;;
70138;SDS011;57507;43.056;0.150;2023-05-16T07:07:02;1.88;;;0.93;;
70138;SDS011;57507;43.056;0.150;2023-05-16T07:09:28;2.55;;;1.10;;
70138;SDS011;57507;43.056;0.150;2023-05-16T07:11:55;2.17;;;1.45;;
70138;SDS011;57507;43.056;0.150;2023-05-16T07:14:21;0.95;;;0.80;;
70138;SDS011;57507;43.056;0.150;2023-05-16T07:16:47;1.73;;;0.80;;
70138;SDS011;57507;43.056;0.150;2023-05-16T07:19:13;1.30;;;0.98;;
70138;SDS011;57507;43.056;0.150;2023-05-16T07:21:39;0.90;;;0.88;;
70138;SDS011;57507;43.056;0.150;2023-05-16T07:24:13;1.00;;;0.80;;
70138;SDS011;57507;43.056;0.150;2023-05-16T07:26:39;1.52;;;0.85;;
70138;SDS011;57507;43.056;0.150;2023-05-16T07:29:05;1.25;;;1.02;;
70138;SDS011;57507;43.056;0.150;2023-05-16T07:31:31;2.25;;;1.45;;
70138;SDS011;57507;43.056;0.150;2023-05-16T07:33:58;1.95;;;1.23;;
70138;SDS011;57507;43.056;0.150;2023-05-16T07:36:24;1.42;;;1.00;;
70138;SDS011;57507;43.056;0.150;2023-05-16T07:38:50;1.67;;;1.02;;
70138;SDS011;57507;43.056;0.150;2023-05-16T07:41:16;1.70;;;1.30;;
70138;SDS011;57507;43.056;0.150;2023-05-16T07:43:42;1.23;;;0.80;;
70138;SDS011;57507;43.056;0.150;2023-05-16T07:46:08;1.65;;;0.90;;
70138;SDS011;57507;43.056;0.150;2023-05-16T07:48:34;1.95;;;1.20;;
70138;SDS011;57507;43.056;0.150;2023-05-16T07:51:00;1.23;;;0.90;;
70138;SDS011;57507;43.056;0.150;2023-05-16T07:53:26;2.55;;;1.20;;
70138;SDS011;57507;43.056;0.150;2023-05-16T07:55:52;1.42;;;1.30;;
70138;SDS011;57507;43.056;0.150;2023-05-16T07:58:18;1.15;;;0.90;;
70138;SDS011;57507;43.056;0.150;2023-05-16T08:00:44;1.25;;;0.90;;
70138;SDS011;57507;43.056;0.150;2023-05-16T08:03:10;1.33;;;1.00;;
70138;SDS011;57507;43.056;0.150;2023-05-16T08:05:36;1.13;;;0.80;;
70138;SDS011;57507;43.056;0.150;2023-05-16T08:08:03;1.10;;;1.00;;
70138;SDS011;57507;43.056;0.150;2023-05-16T08:10:30;0.88;;;0.77;;
70138;SDS011;57507;43.056;0.150;2023-05-16T08:12:56;1.20;;;1.00;;
70138;SDS011;57507;43.056;0.150;2023-05-16T08:15:22;1.02;;;0.80;;
70138;SDS011;57507;43.056;0.150;2023-05-16T08:17:48;1.08;;;0.95;;
70138;SDS011;57507;43.056;0.150;2023-05-16T08:20:15;0.70;;;0.70;;
70138;SDS011;57507;43.056;0.150;2023-05-16T08:22:41;1.00;;;0.90;;
70138;SDS011;57507;43.056;0.150;2023-05-16T08:25:07;1.17;;;1.08;;
70138;SDS011;57507;43.056;0.150;2023-05-16T08:27:33;1.48;;;1.20;;
70138;SDS011;57507;43.056;0.150;2023-05-16T08:29:59;2.08;;;1.42;;
70138;SDS011;57507;43.056;0.150;2023-05-16T08:32:25;2.05;;;1.25;;
70138;SDS011;57507;43.056;0.150;2023-05-16T08:34:51;2.20;;;2.00;;
70138;SDS011;57507;43.056;0.150;2023-05-16T08:37:17;2.60;;;1.77;;
70138;SDS011;57507;43.056;0.150;2023-05-16T08:39:43;2.53;;;2.22;;
70138;SDS011;57507;43.056;0.150;2023-05-16T08:42:10;2.00;;;1.77;;
70138;SDS011;57507;43.056;0.150;2023-05-16T08:44:36;1.80;;;1.42;;
70138;SDS011;57507;43.056;0.150;2023-05-16T08:47:08;2.90;;;2.33;;
70138;SDS011;57507;43.056;0.150;2023-05-16T08:49:37;2.38;;;1.95;;
70138;SDS011;57507;43.056;0.150;2023-05-16T08:52:04;2.67;;;2.35;;
70138;SDS011;57507;43.056;0.150;2023-05-16T08:54:31;3.45;;;2.20;;
70138;SDS011;57507;43.056;0.150;2023-05-16T08:56:57;2.80;;;2.55;;
70138;SDS011;57507;43.056;0.150;2023-05-16T08:59:26;2.80;;;2.58;;
70138;SDS011;57507;43.056;0.150;2023-05-16T09:01:59;2.70;;;2.40;;
70138;SDS011;57507;43.056;0.150;2023-05-16T09:04:27;4.13;;;3.72;;
70138;SDS011;57507;43.056;0.150;2023-05-16T09:07:01;5.38;;;3.42;;
70138;SDS011;57507;43.056;0.150;2023-05-16T09:09:36;2.25;;;2.05;;
70138;SDS011;57507;43.056;0.150;2023-05-16T09:12:02;1.70;;;1.52;;
70138;SDS011;57507;43.056;0.150;2023-05-16T09:14:29;3.63;;;2.05;;
70138;SDS011;57507;43.056;0.150;2023-05-16T09:17:02;2.90;;;2.53;;
70138;SDS011;57507;43.056;0.150;2023-05-16T09:19:39;2.63;;;2.40;;
70138;SDS011;57507;43.056;0.150;2023-05-16T09:22:13;3.30;;;3.00;;
70138;SDS011;57507;43.056;0.150;2023-05-16T09:24:40;3.22;;;2.30;;
70138;SDS011;57507;43.056;0.150;2023-05-16T09:27:12;2.00;;;1.80;;
70138;SDS011;57507;43.056;0.150;2023-05-16T09:29:41;2.15;;;1.88;;
70138;SDS011;57507;43.056;0.150;2023-05-16T09:32:13;2.45;;;2.25;;
70138;SDS011;57507;43.056;0.150;2023-05-16T09:34:43;2.03;;;1.83;;
70138;SDS011;57507;43.056;0.150;2023-05-16T09:37:10;1.95;;;1.35;;
70138;SDS011;57507;43.056;0.150;2023-05-16T09:39:41;1.85;;;1.70;;
70138;SDS011;57507;43.056;0.150;2023-05-16T09:42:11;2.35;;;2.15;;
70138;SDS011;57507;43.056;0.150;2023-05-16T09:44:38;2.03;;;1.40;;
70138;SDS011;57507;43.056;0.150;2023-05-16T09:47:04;2.28;;;1.88;;
70138;SDS011;57507;43.056;0.150;2023-05-16T09:49:31;2.10;;;1.63;;
70138;SDS011;57507;43.056;0.150;2023-05-16T09:52:00;2.15;;;1.67;;
70138;SDS011;57507;43.056;0.150;2023-05-16T09:54:33;2.33;;;2.13;;
70138;SDS011;57507;43.056;0.150;2023-05-16T09:56:59;2.20;;;1.90;;
70138;SDS011;57507;43.056;0.150;2023-05-16T09:59:47;2.42;;;1.63;;
70138;SDS011;57507;43.056;0.150;2023-05-16T10:02:12;3.65;;;2.35;;
70138;SDS011;57507;43.056;0.150;2023-05-16T10:04:39;1.98;;;1.77;;
70138;SDS011;57507;43.056;0.150;2023-05-16T10:07:05;2.88;;;2.20;;
70138;SDS011;57507;43.056;0.150;2023-05-16T10:09:34;1.63;;;1.52;;
70138;SDS011;57507;43.056;0.150;2023-05-16T10:12:03;3.05;;;2.17;;
70138;SDS011;57507;43.056;0.150;2023-05-16T10:14:36;1.48;;;1.33;;
70138;SDS011;57507;43.056;0.150;2023-05-16T10:17:03;2.42;;;1.70;;
70138;SDS011;57507;43.056;0.150;2023-05-16T10:19:31;2.10;;;1.60;;
70138;SDS011;57507;43.056;0.150;2023-05-16T10:22:02;2.03;;;1.48;;
70138;SDS011;57507;43.056;0.150;2023-05-16T10:24:36;1.75;;;1.20;;
70138;SDS011;57507;43.056;0.150;2023-05-16T10:27:04;2.65;;;1.35;;
70138;SDS011;57507;43.056;0.150;2023-05-16T10:29:30;4.13;;;1.33;;
70138;SDS011;57507;43.056;0.150;2023-05-16T10:31:57;1.35;;;1.00;;
70138;SDS011;57507;43.056;0.150;2023-05-16T10:34:23;1.00;;;0.80;;
70138;SDS011;57507;43.056;0.150;2023-05-16T10:36:50;0.70;;;0.60;;
70138;SDS011;57507;43.056;0.150;2023-05-16T10:39:17;1.20;;;0.80;;
70138;SDS011;57507;43.056;0.150;2023-05-16T10:41:43;1.08;;;0.70;;
70138;SDS011;57507;43.056;0.150;2023-05-16T10:44:13;3.88;;;0.80;;
70138;SDS011;57507;43.056;0.150;2023-05-16T10:46:43;1.30;;;0.63;;
70138;SDS011;57507;43.056;0.150;2023-05-16T10:51:44;0.93;;;0.70;;
70138;SDS011;57507;43.056;0.150;2023-05-16T10:54:10;1.50;;;0.80;;
70138;SDS011;57507;43.056;0.150;2023-05-16T10:56:39;1.48;;;0.70;;
70138;SDS011;57507;43.056;0.150;2023-05-16T10:59:21;1.20;;;0.60;;
70138;SDS011;57507;43.056;0.150;2023-05-16T11:01:51;0.93;;;0.73;;
70138;SDS011;57507;43.056;0.150;2023-05-16T11:04:17;1.35;;;0.80;;
70138;SDS011;57507;43.056;0.150;2023-05-16T11:06:44;0.55;;;0.55;;
70138;SDS011;57507;43.056;0.150;2023-05-16T11:14:21;0.93;;;0.80;;
70138;SDS011;57507;43.056;0.150;2023-05-16T11:17:10;1.90;;;0.98;;
70138;SDS011;57507;43.056;0.150;2023-05-16T11:27:19;1.10;;;0.80;;
70138;SDS011;57507;43.056;0.150;2023-05-16T11:29:46;1.90;;;1.38;;
70138;SDS011;57507;43.056;0.150;2023-05-16T11:32:12;1.75;;;1.17;;
70138;SDS011;57507;43.056;0.150;2023-05-16T11:34:39;1.20;;;1.10;;
70138;SDS011;57507;43.056;0.150;2023-05-16T11:37:05;1.13;;;1.02;;
70138;SDS011;57507;43.056;0.150;2023-05-16T11:39:32;1.20;;;0.85;;
70138;SDS011;57507;43.056;0.150;2023-05-16T11:41:58;0.95;;;0.77;;
70138;SDS011;57507;43.056;0.150;2023-05-16T11:44:24;1.23;;;0.90;;
70138;SDS011;57507;43.056;0.150;2023-05-16T11:46:50;1.10;;;0.90;;
70138;SDS011;57507;43.056;0.150;2023-05-16T11:49:16;1.35;;;0.73;;
70138;SDS011;57507;43.056;0.150;2023-05-16T11:51:42;1.02;;;0.90;;
70138;SDS011;57507;43.056;0.150;2023-05-16T11:54:08;1.08;;;0.70;;
70138;SDS011;57507;43.056;0.150;2023-05-16T11:56:35;2.63;;;0.85;;
70138;SDS011;57507;43.056;0.150;2023-05-16T11:59:01;0.95;;;0.90;;
70138;SDS011;57507;43.056;0.150;2023-05-16T12:01:34;3.20;;;0.88;;
70138;SDS011;57507;43.056;0.150;2023-05-16T12:04:01;1.23;;;0.80;;
70138;SDS011;57507;43.056;0.150;2023-05-16T12:06:28;1.88;;;0.95;;
70138;SDS011;57507;43.056;0.150;2023-05-16T12:08:55;3.25;;;0.85;;
70138;SDS011;57507;43.056;0.150;2023-05-16T12:11:24;3.60;;;1.10;;
70138;SDS011;57507;43.056;0.150;2023-05-16T12:13:50;1.35;;;1.00;;
70138;SDS011;57507;43.056;0.150;2023-05-16T12:16:16;2.00;;;1.05;;
70138;SDS011;57507;43.056;0.150;2023-05-16T12:18:42;2.38;;;1.20;;
70138;SDS011;57507;43.056;0.150;2023-05-16T12:21:09;1.27;;;1.02;;
70138;SDS011;57507;43.056;0.150;2023-05-16T12:23:38;2.20;;;1.33;;
70138;SDS011;57507;43.056;0.150;2023-05-16T12:26:07;2.88;;;1.42;;
70138;SDS011;57507;43.056;0.150;2023-05-16T12:28:33;1.10;;;1.00;;
70138;SDS011;57507;43.056;0.150;2023-05-16T12:31:01;1.35;;;1.05;;
70138;SDS011;57507;43.056;0.150;2023-05-16T12:33:27;1.40;;;1.02;;
70138;SDS011;57507;43.056;0.150;2023-05-16T12:35:53;0.70;;;0.68;;
70138;SDS011;57507;43.056;0.150;2023-05-16T12:38:19;1.50;;;1.23;;
70138;SDS011;57507;43.056;0.150;2023-05-16T12:40:46;1.50;;;1.00;;
70138;SDS011;57507;43.056;0.150;2023-05-16T12:43:15;1.73;;;0.90;;
70138;SDS011;57507;43.056;0.150;2023-05-16T12:45:46;1.75;;;0.95;;
70138;SDS011;57507;43.056;0.150;2023-05-16T12:48:14;1.05;;;0.90;;
70138;SDS011;57507;43.056;0.150;2023-05-16T12:50:40;1.25;;;1.05;;
70138;SDS011;57507;43.056;0.150;2023-05-16T12:53:11;3.13;;;1.10;;
70138;SDS011;57507;43.056;0.150;2023-05-16T12:55:37;3.80;;;1.45;;
70138;SDS011;57507;43.056;0.150;2023-05-16T12:58:03;1.70;;;1.13;;
70138;SDS011;57507;43.056;0.150;2023-05-16T13:00:30;1.80;;;1.13;;
70138;SDS011;57507;43.056;0.150;2023-05-16T13:02:56;1.65;;;1.10;;
70138;SDS011;57507;43.056;0.150;2023-05-16T13:05:22;2.80;;;1.60;;
70138;SDS011;57507;43.056;0.150;2023-05-16T13:07:48;1.85;;;1.38;;
70138;SDS011;57507;43.056;0.150;2023-05-16T13:10:18;4.25;;;1.90;;
70138;SDS011;57507;43.056;0.150;2023-05-16T13:12:44;3.30;;;1.10;;
70138;SDS011;57507;43.056;0.150;2023-05-16T13:15:11;1.63;;;1.30;;
70138;SDS011;57507;43.056;0.150;2023-05-16T13:17:38;1.75;;;0.98;;
70138;SDS011;57507;43.056;0.150;2023-05-16T13:20:04;2.13;;;1.25;;
70138;SDS011;57507;43.056;0.150;2023-05-16T13:22:36;1.70;;;0.95;;
70138;SDS011;57507;43.056;0.150;2023-05-16T13:25:03;2.17;;;1.30;;
70138;SDS011;57507;43.056;0.150;2023-05-16T13:27:30;1.42;;;0.90;;
70138;SDS011;57507;43.056;0.150;2023-05-16T13:29:56;1.40;;;0.90;;
70138;SDS011;57507;43.056;0.150;2023-05-16T13:32:22;1.80;;;1.00;;
70138;SDS011;57507;43.056;0.150;2023-05-16T13:34:49;1.88;;;1.23;;
70138;SDS011;57507;43.056;0.150;2023-05-16T13:37:15;1.73;;;1.17;;
70138;SDS011;57507;43.056;0.150;2023-05-16T13:39:41;2.30;;;1.40;;
70138;SDS011;57507;43.056;0.150;2023-05-16T13:42:07;2.33;;;1.70;;
70138;SDS011;57507;43.056;0.150;2023-05-16T13:44:33;2.10;;;1.55;;
70138;SDS011;57507;43.056;0.150;2023-05-16T13:47:00;1.42;;;0.90;;
70138;SDS011;57507;43.056;0.150;2023-05-16T13:49:26;2.10;;;0.75;;
70138;SDS011;57507;43.056;0.150;2023-05-16T13:51:52;2.50;;;1.42;;
70138;SDS011;57507;43.056;0.150;2023-05-16T13:54:18;1.85;;;1.00;;
70138;SDS011;57507;43.056;0.150;2023-05-16T13:56:46;1.35;;;1.17;;
70138;SDS011;57507;43.056;0.150;2023-05-16T13:59:12;1.58;;;1.38;;
70138;SDS011;57507;43.056;0.150;2023-05-16T14:01:38;1.75;;;1.40;;
70138;SDS011;57507;43.056;0.150;2023-05-16T14:04:05;1.90;;;1.00;;
70138;SDS011;57507;43.056;0.150;2023-05-16T14:06:32;1.77;;;1.00;;
70138;SDS011;57507;43.056;0.150;2023-05-16T14:08:58;0.90;;;0.75;;
70138;SDS011;57507;43.056;0.150;2023-05-16T14:11:24;1.15;;;0.90;;
70138;SDS011;57507;43.056;0.150;2023-05-16T14:13:54;1.95;;;1.00;;
70138;SDS011;57507;43.056;0.150;2023-05-16T14:16:20;1.63;;;0.88;;
70138;SDS011;57507;43.056;0.150;2023-05-16T14:18:46;1.60;;;1.20;;
70138;SDS011;57507;43.056;0.150;2023-05-16T14:21:12;1.13;;;1.02;;
70138;SDS011;57507;43.056;0.150;2023-05-16T14:23:38;3.13;;;1.23;;
70138;SDS011;57507;43.056;0.150;2023-05-16T14:26:05;2.08;;;1.15;;
70138;SDS011;57507;43.056;0.150;2023-05-16T14:28:31;2.42;;;1.20;;
70138;SDS011;57507;43.056;0.150;2023-05-16T14:30:57;1.38;;;1.02;;
70138;SDS011;57507;43.056;0.150;2023-05-16T14:33:23;1.55;;;1.15;;
70138;SDS011;57507;43.056;0.150;2023-05-16T14:35:50;2.00;;;0.98;;
70138;SDS011;57507;43.056;0.150;2023-05-16T14:38:16;1.27;;;0.80;;
70138;SDS011;57507;43.056;0.150;2023-05-16T14:40:42;2.42;;;0.75;;
70138;SDS011;57507;43.056;0.150;2023-05-16T14:43:08;2.40;;;1.10;;
70138;SDS011;57507;43.056;0.150;2023-05-16T14:45:36;1.25;;;0.90;;
70138;SDS011;57507;43.056;0.150;2023-05-16T14:48:03;2.72;;;1.00;;
70138;SDS011;57507;43.056;0.150;2023-05-16T14:50:29;2.33;;;1.10;;
70138;SDS011;57507;43.056;0.150;2023-05-16T14:52:55;2.65;;;1.00;;
70138;SDS011;57507;43.056;0.150;2023-05-16T14:55:21;1.08;;;0.98;;
70138;SDS011;57507;43.056;0.150;2023-05-16T14:57:47;1.30;;;0.90;;
70138;SDS011;57507;43.056;0.150;2023-05-16T15:00:14;1.42;;;0.70;;
70138;SDS011;57507;43.056;0.150;2023-05-16T15:02:43;1.08;;;0.70;;
70138;SDS011;57507;43.056;0.150;2023-05-16T15:05:10;1.10;;;1.00;;
70138;SDS011;57507;43.056;0.150;2023-05-16T15:07:36;1.48;;;0.90;;
70138;SDS011;57507;43.056;0.150;2023-05-16T15:10:02;1.08;;;0.70;;
70138;SDS011;57507;43.056;0.150;2023-05-16T15:12:28;1.50;;;1.30;;
70138;SDS011;57507;43.056;0.150;2023-05-16T15:14:54;2.13;;;0.90;;
70138;SDS011;57507;43.056;0.150;2023-05-16T15:17:20;2.22;;;0.80;;
70138;SDS011;57507;43.056;0.150;2023-05-16T15:19:46;1.00;;;0.88;;